Time;durP1;ratioP1;P1;durP2;ratioP2;P2;SDS_P1;SDS_P2;PMS_P1;PMS_P2;Temp;Humidity;BMP_temperature;BMP_pressure;BME280_temperature;BME280_humidity;BME280_pressure;Samples;Min_cycle;Max_cycle;Signal;HPM_P1;HPM_P2
2021/01/15 00:00:04;;;;;;;32.50;14.23;;;;;;;-5.48;84.65;97833.19;1786491;80;21126;-60
2021/01/15 00:02:34;;;;;;;29.92;14.73;;;;;;;-5.40;84.78;97826.47;1759969;81;21150;-61
2021/01/15 00:05:02;;;;;;;30.17;14.23;;;;;;;-5.37;84.29;97832.91;1777169;81;21142;-59
2021/01/15 00:07:31;;;;;;;28.87;13.95;;;;;;;-5.33;84.70;97836.08;1777026;81;21130;-59
2021/01/15 00:09:58;;;;;;;32.38;14.20;;;;;;;-5.34;84.58;97843.13;1776857;81;21141;-58
2021/01/15 00:12:27;;;;;;;30.48;14.53;;;;;;;-5.33;84.57;97843.63;1776830;80;21106;-59
2021/01/15 00:14:56;;;;;;;28.83;13.95;;;;;;;-5.25;84.71;97837.36;1776850;81;21324;-60
2021/01/15 00:17:24;;;;;;;29.00;14.43;;;;;;;-5.22;84.29;97835.40;1776832;81;21107;-60
2021/01/15 00:19:53;;;;;;;31.48;14.90;;;;;;;-5.21;84.04;97838.01;1691098;83;21195;-59
2021/01/15 00:22:21;;;;;;;30.25;13.85;;;;;;;-5.25;83.88;97846.16;1718939;83;21161;-59
2021/01/15 00:24:49;;;;;;;27.25;12.70;;;;;;;-5.34;83.87;97845.64;1719193;83;21309;-60
2021/01/15 00:27:17;;;;;;;25.40;12.07;;;;;;;-5.37;83.87;97842.97;1719031;83;21146;-60
2021/01/15 00:29:45;;;;;;;27.40;12.25;;;;;;;-5.40;83.10;97840.30;1719150;83;21166;-59
2021/01/15 00:32:13;;;;;;;29.15;13.83;;;;;;;-5.47;83.57;97851.28;1718877;83;21158;-59
2021/01/15 00:34:42;;;;;;;25.60;12.65;;;;;;;-5.52;83.59;97845.14;1690834;83;21189;-60
2021/01/15 00:37:11;;;;;;;26.27;14.10;;;;;;;-5.52;83.67;97852.67;1691324;83;21162;-59
2021/01/15 00:39:39;;;;;;;30.90;15.63;;;;;;;-5.51;83.75;97854.39;1718807;83;21159;-59
2021/01/15 00:42:12;;;;;;;28.40;13.72;;;;;;;-5.47;83.91;97848.77;1719024;83;21147;-59
2021/01/15 00:44:45;;;;;;;27.17;13.35;;;;;;;-5.45;83.71;97858.49;1718969;83;21186;-60
2021/01/15 00:47:09;;;;;;;24.87;13.20;;;;;;;-5.45;83.25;97860.14;1718573;83;21281;-59
2021/01/15 00:49:37;;;;;;;23.85;12.35;;;;;;;-5.51;83.46;97863.59;1719040;83;21313;-60
2021/01/15 00:52:06;;;;;;;27.02;12.88;;;;;;;-5.52;82.89;97858.96;1719110;83;21328;-60
2021/01/15 00:54:34;;;;;;;27.30;13.30;;;;;;;-5.51;82.86;97858.16;1719017;83;21715;-61
2021/01/15 00:57:06;;;;;;;22.82;11.38;;;;;;;-5.51;82.76;97851.88;1718802;82;21166;-60
2021/01/15 00:59:34;;;;;;;31.27;14.20;;;;;;;-5.56;82.03;97857.05;1718795;83;21316;-61
2021/01/15 01:02:04;;;;;;;26.93;13.68;;;;;;;-5.65;82.19;97849.38;1714613;83;21320;-59
2021/01/15 01:04:33;;;;;;;31.10;12.45;;;;;;;-5.70;82.44;97848.75;1749032;82;21130;-60
2021/01/15 01:07:01;;;;;;;26.85;12.93;;;;;;;-5.73;82.41;97864.02;1749050;82;21280;-61
2021/01/15 01:09:29;;;;;;;27.30;12.07;;;;;;;-5.79;82.30;97857.02;1749112;82;21146;-59
2021/01/15 01:11:59;;;;;;;26.40;13.68;;;;;;;-5.83;82.40;97865.54;1748998;82;21154;-62
2021/01/15 01:14:29;;;;;;;22.48;12.15;;;;;;;-5.81;82.91;97861.48;1748985;82;21114;-61
2021/01/15 01:16:58;;;;;;;29.87;13.40;;;;;;;-5.73;82.95;97862.77;1718070;83;21178;-60
2021/01/15 01:19:26;;;;;;;25.10;12.55;;;;;;;-5.69;82.77;97859.66;1749138;82;21314;-59
2021/01/15 01:21:54;;;;;;;21.93;12.28;;;;;;;-5.67;82.56;97860.22;1749165;81;21284;-59
2021/01/15 01:24:21;;;;;;;24.43;10.93;;;;;;;-5.71;82.56;97866.24;1713451;84;21166;-59
2021/01/15 01:26:50;;;;;;;26.27;12.40;;;;;;;-5.68;82.79;97858.87;1748993;82;21154;-61
2021/01/15 01:29:18;;;;;;;24.60;12.82;;;;;;;-5.71;82.45;97866.24;1749417;82;21158;-59
2021/01/15 01:31:46;;;;;;;24.63;13.55;;;;;;;-5.77;82.53;97859.63;1749255;82;21145;-59
2021/01/15 01:34:14;;;;;;;23.40;13.15;;;;;;;-5.80;82.85;97861.94;1749123;82;21158;-61
2021/01/15 01:36:42;;;;;;;24.67;11.63;;;;;;;-5.79;83.00;97867.46;1749268;81;21106;-59
2021/01/15 01:39:10;;;;;;;23.00;11.70;;;;;;;-5.81;82.78;97867.36;1717773;83;21296;-60
2021/01/15 01:41:37;;;;;;;27.27;12.73;;;;;;;-5.84;82.78;97877.24;1749171;82;21158;-60
2021/01/15 01:44:05;;;;;;;25.30;12.45;;;;;;;-5.81;83.14;97879.06;1749220;82;21655;-59
2021/01/15 01:46:33;;;;;;;24.00;12.37;;;;;;;-5.71;83.26;97883.83;1713671;83;21289;-60
2021/01/15 01:49:02;;;;;;;23.92;12.55;;;;;;;-5.64;83.02;97879.63;1749179;82;21317;-59
2021/01/15 01:51:31;;;;;;;19.77;11.35;;;;;;;-5.70;82.68;97890.58;1736224;80;21307;-60
2021/01/15 01:53:59;;;;;;;21.80;10.75;;;;;;;-5.71;82.89;97883.83;1728131;82;21289;-59
2021/01/15 01:56:28;;;;;;;24.10;12.00;;;;;;;-5.78;82.80;97895.56;1749161;82;21114;-59
2021/01/15 01:58:57;;;;;;;19.50;9.90;;;;;;;-5.87;82.73;97881.23;1717718;83;21247;-60
2021/01/15 02:01:26;;;;;;;23.15;11.30;;;;;;;-5.98;82.84;97880.27;1749118;81;21292;-60
2021/01/15 02:04:03;;;;;;;22.58;11.97;;;;;;;-6.04;82.99;97891.20;1723327;83;21177;-61
2021/01/15 02:06:36;;;;;;;23.40;10.45;;;;;;;-6.10;83.23;97895.02;1741409;82;21223;-61
2021/01/15 02:09:07;;;;;;;22.10;9.83;;;;;;;-6.07;83.57;97893.53;1741411;82;21165;-59
2021/01/15 02:11:59;;;;;;;24.37;11.65;;;;;;;-6.12;83.05;97895.77;1741456;82;21146;-59
2021/01/15 02:15:00;;;;;;;26.02;11.55;;;;;;;-6.28;82.72;97889.75;1757745;80;21153;-59
2021/01/15 02:17:33;;;;;;;24.77;11.80;;;;;;;-6.46;82.91;97892.94;1757974;82;21130;-60
2021/01/15 02:20:09;;;;;;;25.80;12.88;;;;;;;-6.65;82.75;97885.07;1756973;80;21288;-60
2021/01/15 02:23:13;;;;;;;23.73;11.57;;;;;;;-6.75;83.34;97888.66;1758044;82;21276;-59
2021/01/15 02:26:07;;;;;;;22.13;9.88;;;;;;;-6.78;83.41;97900.62;1757952;80;21141;-59
2021/01/15 02:29:01;;;;;;;23.57;11.25;;;;;;;-6.82;83.37;97893.70;1757723;80;21303;-59
2021/01/15 02:31:47;;;;;;;18.55;9.70;;;;;;;-6.88;83.36;97896.22;1757700;82;21125;-62
2021/01/15 02:34:42;;;;;;;22.98;10.63;;;;;;;-6.93;83.33;97895.93;1757772;80;21288;-60
2021/01/15 02:37:26;;;;;;;21.07;9.95;;;;;;;-6.98;83.15;97898.55;1756291;82;21130;-61
2021/01/15 02:40:07;;;;;;;25.25;11.10;;;;;;;-7.04;83.31;97910.72;1757844;82;21161;-58
2021/01/15 02:42:38;;;;;;;22.70;10.45;;;;;;;-7.02;83.49;97909.14;1757483;82;21141;-61
2021/01/15 02:45:11;;;;;;;21.07;10.48;;;;;;;-7.08;83.75;97903.76;1757520;80;21166;-61
2021/01/15 02:47:50;;;;;;;21.95;10.75;;;;;;;-7.07;83.85;97915.15;1757924;82;21145;-60
2021/01/15 02:50:24;;;;;;;27.77;12.82;;;;;;;-7.02;84.02;97919.17;1757752;82;21158;-61
2021/01/15 02:52:56;;;;;;;25.80;11.57;;;;;;;-6.92;84.35;97916.49;1758037;82;21520;-60
2021/01/15 02:55:25;;;;;;;23.90;11.00;;;;;;;-6.83;84.01;97908.26;1757792;82;21121;-60
2021/01/15 02:57:54;;;;;;;25.27;11.12;;;;;;;-6.77;83.99;97919.05;1757764;82;21141;-60
2021/01/15 03:00:23;;;;;;;23.27;11.78;;;;;;;-6.77;83.63;97923.70;1757966;82;21145;-60
2021/01/15 03:03:34;;;;;;;25.60;10.95;;;;;;;-6.70;83.92;97929.08;1756542;81;21102;-58
2021/01/15 03:06:45;;;;;;;28.62;12.47;;;;;;;-6.65;83.78;97918.94;1744777;82;21287;-59
2021/01/15 03:09:14;;;;;;;24.72;11.88;;;;;;;-6.61;83.41;97919.23;1744545;82;21146;-59
2021/01/15 03:11:44;;;;;;;20.40;9.70;;;;;;;-6.71;83.29;97921.09;1744503;81;21158;-60
2021/01/15 03:14:14;;;;;;;21.25;10.82;;;;;;;-6.77;83.46;97931.23;1744693;81;21150;-60
2021/01/15 03:16:42;;;;;;;19.55;9.40;;;;;;;-6.78;83.56;97926.97;1744604;82;21158;-60
2021/01/15 03:19:11;;;;;;;20.48;10.23;;;;;;;-6.83;83.55;97930.83;1744593;81;21106;-60
2021/01/15 03:21:39;;;;;;;23.27;10.60;;;;;;;-6.90;83.59;97932.47;1744605;81;21118;-59
2021/01/15 03:24:08;;;;;;;21.68;9.98;;;;;;;-6.86;84.08;97933.16;1744765;82;21273;-59
2021/01/15 03:26:36;;;;;;;22.62;10.98;;;;;;;-6.82;83.86;97935.09;1744790;81;21304;-59
2021/01/15 03:29:04;;;;;;;21.12;10.80;;;;;;;-6.85;83.74;97937.39;1744670;82;21275;-60
2021/01/15 03:31:31;;;;;;;23.90;11.00;;;;;;;-6.82;84.13;97937.61;1744542;81;21181;-59
2021/01/15 03:34:00;;;;;;;23.10;11.25;;;;;;;-6.83;83.06;97930.83;1744673;82;21126;-59
2021/01/15 03:36:28;;;;;;;19.82;9.60;;;;;;;-6.93;82.84;97935.19;1744605;81;21133;-59
2021/01/15 03:38:55;;;;;;;20.00;9.38;;;;;;;-7.02;82.60;97940.48;1744593;82;21146;-59
2021/01/15 03:41:23;;;;;;;19.70;8.58;;;;;;;-7.12;82.41;97951.96;1744563;81;21264;-60
2021/01/15 03:43:51;;;;;;;19.60;8.35;;;;;;;-7.21;82.11;97956.02;1744781;82;21139;-59
2021/01/15 03:46:18;;;;;;;16.75;7.78;;;;;;;-7.25;82.30;97961.23;1744659;81;21146;-59
2021/01/15 03:48:47;;;;;;;18.75;7.70;;;;;;;-7.29;82.00;97959.30;1744772;81;21146;-59
2021/01/15 03:51:14;;;;;;;18.45;8.55;;;;;;;-7.31;81.89;97950.80;1744522;81;21166;-60
2021/01/15 03:53:47;;;;;;;17.52;8.15;;;;;;;-7.37;81.59;97953.33;1744726;82;21276;-60
2021/01/15 03:56:17;;;;;;;16.87;7.60;;;;;;;-7.45;81.79;97953.70;1744401;82;21284;-59
2021/01/15 03:58:45;;;;;;;18.95;9.73;;;;;;;-7.46;81.94;97959.84;1744735;81;21134;-59
2021/01/15 04:01:14;;;;;;;20.05;8.40;;;;;;;-7.46;82.32;97956.09;1744659;82;21162;-59
2021/01/15 04:03:42;;;;;;;18.70;9.65;;;;;;;-7.41;82.69;97957.25;1744476;81;21388;-60
2021/01/15 04:06:10;;;;;;;16.07;8.60;;;;;;;-7.33;82.79;97964.87;1744638;82;21300;-59
2021/01/15 04:08:38;;;;;;;18.30;8.78;;;;;;;-7.32;82.69;97961.61;1744554;82;21283;-59
2021/01/15 04:11:07;;;;;;;20.55;8.68;;;;;;;-7.29;82.80;97964.70;1744525;82;21316;-59
2021/01/15 04:13:34;;;;;;;16.25;8.50;;;;;;;-7.22;82.44;97959.31;1744758;82;21102;-60
2021/01/15 04:19:00;;;;;;;19.30;8.70;;;;;;;-7.26;81.56;97964.50;1744615;82;21138;-59
2021/01/15 04:21:28;;;;;;;16.57;8.45;;;;;;;-7.29;81.38;97964.70;1744523;82;21150;-60
2021/01/15 04:23:56;;;;;;;18.07;8.88;;;;;;;-7.36;80.96;97964.67;1744579;81;21596;-59
2021/01/15 04:26:24;;;;;;;22.65;9.43;;;;;;;-7.39;81.37;97975.77;1744621;81;21138;-59
2021/01/15 04:28:52;;;;;;;19.50;8.55;;;;;;;-7.36;81.85;97977.20;1744546;81;21300;-59
2021/01/15 04:31:20;;;;;;;15.15;7.60;;;;;;;-7.31;81.63;97975.86;1744516;82;21146;-59
2021/01/15 04:33:48;;;;;;;16.85;6.83;;;;;;;-7.29;81.44;97971.83;1744821;82;21304;-59
2021/01/15 04:36:16;;;;;;;19.77;9.33;;;;;;;-7.38;80.85;97978.73;1744756;82;21126;-59
2021/01/15 04:38:48;;;;;;;18.00;8.85;;;;;;;-7.49;81.04;97988.47;1744607;81;21277;-60
2021/01/15 04:41:24;;;;;;;19.40;9.68;;;;;;;-7.50;81.50;97993.01;1744714;82;21162;-59
2021/01/15 04:43:55;;;;;;;16.87;8.25;;;;;;;-7.51;81.08;97995.02;1744177;82;21339;-59
2021/01/15 04:46:26;;;;;;;20.45;9.38;;;;;;;-7.66;79.94;97980.73;1726666;81;21569;-60
2021/01/15 04:48:56;;;;;;;24.72;10.03;;;;;;;-7.83;80.09;97997.53;1747031;82;21280;-60
2021/01/15 04:51:27;;;;;;;23.85;10.28;;;;;;;-7.91;80.48;98012.41;1728576;81;21182;-59
2021/01/15 04:54:04;;;;;;;19.15;8.05;;;;;;;-7.98;80.80;98007.78;1786411;80;21536;-59
2021/01/15 04:56:48;;;;;;;21.97;10.30;;;;;;;-8.10;80.82;98009.92;1786130;80;21150;-58
2021/01/15 04:59:18;;;;;;;23.75;10.70;;;;;;;-8.20;81.07;98006.31;1786489;80;21158;-60
2021/01/15 05:01:48;;;;;;;29.50;11.22;;;;;;;-8.24;81.60;98009.39;1786336;80;21161;-59
2021/01/15 05:04:19;;;;;;;23.47;11.70;;;;;;;-8.16;81.84;98018.67;1786547;80;21299;-65
2021/01/15 05:06:52;;;;;;;24.37;10.70;;;;;;;-8.04;81.90;98022.37;1786323;80;21118;-60
2021/01/15 05:09:26;;;;;;;24.67;11.55;;;;;;;-7.99;81.78;98026.05;1786116;80;21300;-62
2021/01/15 05:11:53;;;;;;;23.52;10.05;;;;;;;-7.91;81.89;98024.92;1785864;80;21162;-61
2021/01/15 05:14:21;;;;;;;21.05;10.45;;;;;;;-7.87;81.42;98014.36;1780797;80;21129;-63
2021/01/15 05:16:50;;;;;;;23.67;10.88;;;;;;;-7.94;81.59;98023.08;1781358;80;21126;-60
2021/01/15 05:19:18;;;;;;;20.45;10.58;;;;;;;-7.96;81.73;98024.64;1776824;80;21126;-61
2021/01/15 05:21:50;;;;;;;21.87;10.82;;;;;;;-7.93;81.84;98018.97;1779591;80;21086;-61
2021/01/15 05:24:19;;;;;;;20.00;10.03;;;;;;;-7.90;81.68;98022.92;1776846;79;21374;-62
2021/01/15 05:26:47;;;;;;;22.60;10.32;;;;;;;-7.89;81.94;98025.52;1779917;80;21550;-60
2021/01/15 05:29:16;;;;;;;27.73;10.72;;;;;;;-7.82;82.20;98031.81;1779948;80;21187;-60
2021/01/15 05:31:55;;;;;;;24.47;11.03;;;;;;;-7.75;81.77;98030.20;1778046;80;21117;-62
2021/01/15 05:34:26;;;;;;;21.85;10.48;;;;;;;-7.71;81.81;98042.18;1774692;80;21109;-65
2021/01/15 05:36:55;;;;;;;22.95;11.10;;;;;;;-7.60;81.72;98047.03;1781006;80;21150;-66
2021/01/15 05:39:25;;;;;;;22.70;10.15;;;;;;;-7.49;81.79;98041.95;1781734;80;21303;-65
2021/01/15 05:42:02;;;;;;;18.20;9.48;;;;;;;-7.44;81.07;98043.51;1781357;80;21207;-65
2021/01/15 05:44:32;;;;;;;20.62;10.03;;;;;;;-7.52;80.97;98048.41;1777783;80;21089;-66
2021/01/15 05:47:01;;;;;;;23.70;11.65;;;;;;;-7.54;81.29;98052.44;1777356;80;21521;-66
2021/01/15 05:49:30;;;;;;;21.17;10.65;;;;;;;-7.52;80.50;98064.69;1757200;80;21661;-66
2021/01/15 05:52:08;;;;;;;20.17;10.13;;;;;;;-7.52;80.57;98057.17;1745774;80;21303;-65
2021/01/15 05:54:36;;;;;;;23.00;11.15;;;;;;;-7.56;79.95;98054.83;1780692;80;21347;-65
2021/01/15 05:57:05;;;;;;;23.45;10.95;;;;;;;-7.70;80.11;98060.19;1775026;79;21502;-65
2021/01/15 05:59:38;;;;;;;29.75;13.03;;;;;;;-7.69;80.05;98064.80;1777675;80;21403;-67
2021/01/15 06:02:07;;;;;;;29.12;12.45;;;;;;;-7.70;80.36;98069.34;1781228;79;21403;-65
2021/01/15 06:04:39;;;;;;;36.88;18.05;;;;;;;-7.64;80.48;98076.00;1785240;80;21145;-66
2021/01/15 06:07:10;;;;;;;;;;;;;;;-7.48;80.82;98081.65;1793776;80;21229;-65
2021/01/15 06:09:43;;;;;;;24.90;10.07;;;;;;;-7.34;80.34;98064.64;1790673;78;20209;-65
2021/01/15 06:12:18;;;;;;;23.30;10.28;;;;;;;-7.49;78.61;98077.02;1792347;80;21298;-66
2021/01/15 06:15:00;;;;;;;22.77;11.70;;;;;;;-7.66;78.35;98066.26;1795041;78;21169;-65
2021/01/15 06:17:28;;;;;;;28.20;13.45;;;;;;;-7.79;78.38;98080.84;1791971;80;21124;-66
2021/01/15 06:20:01;;;;;;;28.47;12.53;;;;;;;-7.81;78.51;98087.41;1785891;80;21258;-66
2021/01/15 06:22:49;;;;;;;34.75;16.80;;;;;;;-7.87;78.42;98091.98;1785547;80;21090;-66
2021/01/15 06:25:33;;;;;;;31.40;16.27;;;;;;;-8.00;78.50;98089.41;1790667;78;21141;-65
2021/01/15 06:28:04;;;;;;;26.50;15.15;;;;;;;-7.99;78.56;98092.39;1791632;80;21503;-66
2021/01/15 06:30:34;;;;;;;30.02;16.52;;;;;;;-7.95;78.60;98091.46;1789243;78;21137;-66
2021/01/15 06:33:14;;;;;;;25.68;13.15;;;;;;;-7.88;78.38;98086.11;1740938;79;22117;-66
2021/01/15 06:35:44;;;;;;;24.50;12.23;;;;;;;-7.87;78.20;98099.50;1795284;78;21137;-65
2021/01/15 06:38:19;;;;;;;21.02;9.90;;;;;;;-7.82;78.41;98104.44;1795565;80;21157;-66
2021/01/15 06:40:50;;;;;;;24.18;10.82;;;;;;;-7.79;77.64;98100.02;1795561;78;21291;-66
2021/01/15 06:43:34;;;;;;;23.55;11.12;;;;;;;-7.84;77.24;98116.36;1795198;79;21164;-65
2021/01/15 06:46:05;;;;;;;25.65;11.57;;;;;;;-7.84;77.47;98118.48;1795188;79;21318;-65
2021/01/15 06:48:39;;;;;;;20.45;10.23;;;;;;;-7.80;77.57;98124.20;1767531;80;21149;-66
2021/01/15 06:51:09;;;;;;;25.48;11.05;;;;;;;-7.81;77.49;98129.98;1795529;79;21286;-65
2021/01/15 06:53:39;;;;;;;25.75;11.73;;;;;;;-7.81;77.58;98127.83;1794969;80;21153;-64
2021/01/15 06:56:10;;;;;;;20.97;10.20;;;;;;;-7.77;77.33;98131.05;1795475;80;21272;-62
2021/01/15 06:58:43;;;;;;;25.70;11.18;;;;;;;-7.76;77.14;98129.91;1795379;80;21364;-63
2021/01/15 07:01:24;;;;;;;24.32;11.15;;;;;;;-7.84;77.48;98134.75;1795349;79;21165;-63
2021/01/15 07:04:28;;;;;;;20.68;10.82;;;;;;;-7.84;77.93;98141.02;1796191;80;21141;-61
2021/01/15 07:07:16;;;;;;;26.55;11.83;;;;;;;-7.81;77.71;98138.75;1789674;80;21157;-63
2021/01/15 07:09:46;;;;;;;25.65;12.03;;;;;;;-7.81;77.75;98129.98;1795434;79;21121;-60
2021/01/15 07:12:19;;;;;;;19.10;10.00;;;;;;;-7.77;77.61;98138.17;1795431;80;21142;-61
2021/01/15 07:20:41;;;;;;;25.05;12.10;;;;;;;-7.68;76.90;98147.58;1739878;82;21596;-62
2021/01/15 07:23:17;;;;;;;20.52;9.70;;;;;;;-7.66;76.28;98152.67;1764169;81;21149;-63
2021/01/15 07:25:49;;;;;;;26.00;11.68;;;;;;;-7.83;75.33;98164.06;1763374;81;21145;-64
2021/01/15 07:28:17;;;;;;;22.95;10.68;;;;;;;-7.99;76.07;98167.50;1699152;83;21153;-63
2021/01/15 07:30:45;;;;;;;24.60;12.25;;;;;;;-8.09;76.18;98171.87;1748356;82;21123;-64
2021/01/15 07:33:13;;;;;;;27.40;15.35;;;;;;;-8.05;76.44;98180.46;1750003;82;21288;-62
2021/01/15 07:35:42;;;;;;;25.82;12.60;;;;;;;-7.96;76.49;98181.12;1748154;82;21619;-63
2021/01/15 07:38:34;;;;;;;23.40;10.40;;;;;;;-7.85;76.02;98181.86;1747909;82;21158;-63
2021/01/15 07:41:02;;;;;;;25.00;13.22;;;;;;;-7.94;75.03;98192.47;1714208;82;21129;-63
2021/01/15 07:43:34;;;;;;;21.02;11.38;;;;;;;-8.07;75.31;98191.61;1712703;82;21125;-64
2021/01/15 07:46:05;;;;;;;24.18;11.85;;;;;;;-8.09;74.75;98202.27;1716645;82;21180;-63
2021/01/15 07:48:33;;;;;;;23.10;10.88;;;;;;;-8.15;74.60;98202.72;1716603;83;21160;-64
2021/01/15 07:51:28;;;;;;;21.70;9.83;;;;;;;-8.08;74.95;98190.27;1714312;83;21303;-65
2021/01/15 07:53:56;;;;;;;23.83;10.80;;;;;;;-8.04;74.42;98200.09;1666362;84;21201;-63
2021/01/15 07:56:27;;;;;;;22.55;11.08;;;;;;;-8.05;74.19;98209.64;1664858;86;21199;-62
2021/01/15 07:58:55;;;;;;;24.30;10.65;;;;;;;-7.92;74.46;98200.97;1668730;86;21156;-64
2021/01/15 08:01:23;;;;;;;24.00;12.25;;;;;;;-7.81;73.46;98217.63;1669004;84;21199;-61
2021/01/15 08:03:57;;;;;;;23.20;11.35;;;;;;;-7.79;73.42;98217.72;1667994;84;21357;-64
2021/01/15 08:06:27;;;;;;;26.15;11.75;;;;;;;-7.74;73.24;98222.67;1668243;86;21582;-65
2021/01/15 08:09:07;;;;;;;19.90;10.53;;;;;;;-7.75;72.49;98209.67;1671256;84;21349;-64
2021/01/15 08:11:37;;;;;;;23.12;10.70;;;;;;;-7.88;71.77;98237.99;1671678;84;21165;-62
2021/01/15 08:14:23;;;;;;;17.37;8.15;;;;;;;-7.98;72.38;98238.97;1673639;85;21139;-64
2021/01/15 08:16:51;;;;;;;22.58;10.00;;;;;;;-8.02;71.85;98239.89;1667106;83;21163;-64
2021/01/15 08:19:21;;;;;;;22.58;10.40;;;;;;;-8.16;72.04;98243.92;1670803;85;21176;-64
2021/01/15 08:21:51;;;;;;;20.77;10.23;;;;;;;-8.15;72.33;98257.78;1686035;85;21334;-64
2021/01/15 08:24:19;;;;;;;25.02;11.88;;;;;;;-7.99;72.46;98258.88;1685950;85;21322;-64
2021/01/15 08:26:55;;;;;;;22.87;10.60;;;;;;;-7.93;72.07;98249.31;1666805;86;21747;-64
2021/01/15 08:29:29;;;;;;;20.50;9.18;;;;;;;-7.93;71.89;98250.18;1659750;86;21171;-64
2021/01/15 08:31:59;;;;;;;21.05;10.35;;;;;;;-7.93;71.88;98246.42;1656703;85;21180;-65
2021/01/15 08:34:33;;;;;;;26.73;12.82;;;;;;;-7.86;71.60;98252.75;1702123;83;21185;-63
2021/01/15 08:37:04;;;;;;;26.07;11.43;;;;;;;-7.70;71.50;98248.05;1693843;84;21203;-64
2021/01/15 08:39:49;;;;;;;25.70;11.63;;;;;;;-7.58;70.72;98249.66;1668129;86;21208;-62
2021/01/15 08:42:17;;;;;;;23.70;11.70;;;;;;;-7.42;71.14;98251.22;1667629;86;21322;-63
2021/01/15 08:44:51;;;;;;;25.85;11.57;;;;;;;-7.35;70.79;98248.37;1667670;86;21695;-63
2021/01/15 08:47:20;;;;;;;27.05;11.88;;;;;;;-7.28;70.32;98247.14;1667736;86;21188;-63
2021/01/15 08:49:57;;;;;;;24.12;12.45;;;;;;;-7.20;70.10;98257.30;1668124;86;21187;-64
2021/01/15 08:52:32;;;;;;;29.25;12.45;;;;;;;-7.09;70.69;98251.80;1666535;85;21615;-62
2021/01/15 08:55:02;;;;;;;21.23;10.03;;;;;;;-6.64;70.31;98249.34;1663455;86;21576;-65
2021/01/15 08:57:31;;;;;;;20.92;10.40;;;;;;;-6.53;67.99;98248.43;1663089;86;21212;-65
2021/01/15 09:00:13;;;;;;;40.67;17.70;;;;;;;-6.80;67.97;98251.23;1668069;86;21190;-62
2021/01/15 09:02:43;;;;;;;38.35;18.20;;;;;;;-6.90;68.59;98258.91;1663070;86;21186;-65
2021/01/15 09:05:16;;;;;;;28.17;14.23;;;;;;;-6.80;68.40;98254.59;1663180;86;21747;-64
2021/01/15 09:07:47;;;;;;;25.12;11.97;;;;;;;-6.91;67.00;98249.66;1667568;86;21170;-64
2021/01/15 09:10:17;;;;;;;22.75;10.30;;;;;;;-7.16;67.00;98249.63;1663472;86;21694;-64
2021/01/15 09:12:48;;;;;;;41.92;18.62;;;;;;;-7.41;66.92;98260.47;1668036;86;21379;-64
2021/01/15 09:15:25;;;;;;;23.22;11.95;;;;;;;-7.51;67.66;98253.08;1668231;86;21600;-63
2021/01/15 09:17:56;;;;;;;50.92;19.15;;;;;;;-7.53;68.29;98254.59;1663280;86;21715;-65
2021/01/15 09:20:26;;;;;;;27.67;11.65;;;;;;;-7.48;68.65;98262.05;1663260;86;21183;-63
2021/01/15 09:22:54;;;;;;;37.85;18.55;;;;;;;-7.35;68.27;98260.91;1667875;86;21178;-65
2021/01/15 09:25:22;;;;;;;27.17;11.55;;;;;;;-7.17;68.29;98257.89;1663358;86;21315;-64
2021/01/15 09:27:51;;;;;;;25.40;11.33;;;;;;;-7.09;67.72;98268.09;1663299;86;21191;-65
2021/01/15 09:30:19;;;;;;;23.52;9.93;;;;;;;-7.22;67.19;98255.97;1668077;86;21600;-62
2021/01/15 09:32:47;;;;;;;25.17;12.28;;;;;;;-7.36;67.72;98259.14;1663140;86;21265;-64
2021/01/15 09:35:19;;;;;;;18.92;9.53;;;;;;;-7.33;68.20;98270.63;1667885;86;21186;-63
2021/01/15 09:37:48;;;;;;;21.57;9.38;;;;;;;-7.29;67.75;98271.34;1667922;86;21245;-63
2021/01/15 09:40:16;;;;;;;17.42;8.68;;;;;;;-7.39;67.29;98273.98;1663134;86;21194;-65
2021/01/15 09:42:49;;;;;;;23.02;10.05;;;;;;;-7.49;67.22;98267.45;1663051;86;21337;-64
2021/01/15 09:45:17;;;;;;;26.20;10.32;;;;;;;-7.54;67.73;98277.92;1667936;86;21194;-63
2021/01/15 09:47:46;;;;;;;18.95;8.90;;;;;;;-7.63;67.77;98283.17;1663114;86;21186;-63
2021/01/15 09:50:14;;;;;;;19.65;9.15;;;;;;;-7.66;67.94;98270.41;1667877;86;21495;-65
2021/01/15 09:52:49;;;;;;;20.45;9.98;;;;;;;-7.81;67.69;98271.83;1668433;86;21320;-63
2021/01/15 09:55:17;;;;;;;16.23;8.10;;;;;;;-7.95;68.34;98273.38;1665506;86;21166;-62
2021/01/15 09:57:49;;;;;;;22.52;10.25;;;;;;;-8.02;68.65;98282.06;1666569;86;21158;-64
2021/01/15 10:00:39;;;;;;;18.50;9.98;;;;;;;-8.02;69.09;98274.94;1665220;86;21202;-65
2021/01/15 10:03:07;;;;;;;19.27;9.33;;;;;;;-8.01;69.32;98271.66;1646314;87;21571;-62
2021/01/15 10:05:35;;;;;;;22.30;9.95;;;;;;;-8.06;69.28;98275.11;1646014;87;21346;-64
2021/01/15 10:08:04;;;;;;;18.50;9.60;;;;;;;-7.98;69.16;98278.16;1616641;89;21169;-64
2021/01/15 10:10:32;;;;;;;18.98;9.30;;;;;;;-7.83;68.89;98280.52;1654810;86;21193;-63
2021/01/15 10:13:00;;;;;;;21.90;10.30;;;;;;;-7.75;68.41;98277.30;1659469;85;21663;-63
2021/01/15 10:15:27;;;;;;;18.73;8.95;;;;;;;-7.59;68.76;98276.73;1656162;84;21146;-63
2021/01/15 10:17:55;;;;;;;19.77;8.85;;;;;;;-7.53;68.03;98268.02;1656158;84;21313;-66
2021/01/15 10:20:25;;;;;;;20.80;9.45;;;;;;;-7.72;67.95;98282.12;1659125;86;21192;-63
2021/01/15 10:22:53;;;;;;;22.75;10.08;;;;;;;-7.81;68.42;98272.73;1668157;84;21398;-63
2021/01/15 10:25:22;;;;;;;21.87;10.20;;;;;;;-7.81;68.95;98277.73;1670972;86;21201;-61
2021/01/15 10:27:50;;;;;;;20.35;9.40;;;;;;;-7.62;69.79;98269.01;1675368;84;21173;-64
2021/01/15 10:30:40;;;;;;;24.05;10.28;;;;;;;-7.51;69.26;98277.75;1665160;84;21604;-68
2021/01/15 10:33:07;;;;;;;16.17;8.70;;;;;;;-7.51;69.50;98268.11;1680921;85;21050;-64
2021/01/15 10:35:38;;;;;;;21.60;10.20;;;;;;;-7.54;69.04;98272.91;1683670;85;21031;-64
2021/01/15 10:38:07;;;;;;;;;;;;;;;-7.46;68.94;98273.06;1683561;85;21034;-64
2021/01/15 10:40:34;;;;;;;45.58;19.55;;;;;;;-7.15;69.50;98272.28;1684375;84;20162;-64
2021/01/15 10:43:02;;;;;;;107.55;39.80;;;;;;;-6.83;68.59;98269.45;1684843;85;21252;-65
2021/01/15 10:45:30;;;;;;;31.75;14.68;;;;;;;-6.50;69.80;98261.17;1684935;85;21058;-67
2021/01/15 10:47:58;;;;;;;26.55;13.08;;;;;;;-6.07;67.75;98260.59;1684897;84;21509;-66
2021/01/15 10:50:26;;;;;;;28.07;12.88;;;;;;;-6.14;66.16;98268.97;1684816;85;21157;-69
2021/01/15 10:52:54;;;;;;;23.67;10.95;;;;;;;-6.36;66.17;98263.32;1684697;85;21201;-66
2021/01/15 10:55:23;;;;;;;36.17;15.80;;;;;;;-6.60;66.48;98268.48;1684762;85;21079;-67
2021/01/15 10:57:50;;;;;;;23.95;11.97;;;;;;;-6.65;67.12;98271.45;1684870;84;21097;-65
2021/01/15 11:00:19;;;;;;;48.83;22.80;;;;;;;-6.70;67.43;98266.52;1683901;84;21169;-66
2021/01/15 11:02:50;;;;;;;43.58;17.00;;;;;;;-6.70;67.19;98269.02;1683405;84;21244;-66
2021/01/15 11:05:18;;;;;;;31.33;15.03;;;;;;;-6.62;67.99;98269.14;1684232;83;21557;-67
2021/01/15 11:07:47;;;;;;;36.88;18.15;;;;;;;-6.57;66.96;98273.69;1682512;84;21512;-68
2021/01/15 11:10:16;;;;;;;27.48;12.80;;;;;;;-6.48;67.46;98277.60;1683464;84;21050;-67
2021/01/15 11:12:43;;;;;;;32.70;15.45;;;;;;;-6.34;67.29;98274.34;1686216;83;21117;-65
2021/01/15 11:15:12;;;;;;;26.97;12.93;;;;;;;-6.16;67.36;98270.89;1682762;84;21460;-65
2021/01/15 11:17:40;;;;;;;30.90;14.90;;;;;;;-5.99;66.85;98277.02;1689370;83;21242;-66
2021/01/15 11:20:09;;;;;;;35.03;16.35;;;;;;;-5.80;66.77;98277.75;1684327;82;21042;-67
2021/01/15 11:22:37;;;;;;;26.40;12.15;;;;;;;-5.64;65.73;98271.68;1684119;83;21070;-67
2021/01/15 11:25:06;;;;;;;25.90;12.73;;;;;;;-5.66;64.13;98268.20;1683976;84;21058;-67
2021/01/15 11:27:34;;;;;;;26.17;11.97;;;;;;;-5.64;64.52;98275.84;1684493;85;21473;-66
2021/01/15 11:30:05;;;;;;;21.60;10.75;;;;;;;-5.48;64.26;98275.62;1684295;84;21193;-66
2021/01/15 11:32:35;;;;;;;22.48;10.05;;;;;;;-5.52;63.75;98279.99;1685439;85;21086;-68
2021/01/15 11:35:05;;;;;;;18.90;10.65;;;;;;;-5.63;64.03;98280.09;1667685;85;21556;-69
2021/01/15 11:37:39;;;;;;;25.82;12.03;;;;;;;-5.61;64.29;98276.03;1631954;88;21089;-66
2021/01/15 11:40:11;;;;;;;19.17;8.90;;;;;;;-5.60;64.14;98272.34;1632051;88;21517;-65
2021/01/15 11:42:39;;;;;;;20.95;9.73;;;;;;;-5.77;63.03;98272.95;1655176;85;21229;-67
2021/01/15 11:45:07;;;;;;;17.62;8.55;;;;;;;-6.08;62.77;98273.54;1663612;84;21058;-66
2021/01/15 11:47:35;;;;;;;15.95;8.35;;;;;;;-6.21;63.93;98277.27;1676818;85;21189;-65